createdAt,value
2023-02-28T00:00:00.765Z,65.10
2023-02-28T00:03:43.760Z,64.63
2023-02-28T00:07:26.464Z,64.61
2023-02-28T00:11:12.355Z,64.55
2023-02-28T00:14:55.187Z,64.88
2023-02-28T00:18:38.044Z,65.64
2023-02-28T00:22:23.663Z,65.36
2023-02-28T00:26:06.699Z,65.25
2023-02-28T00:29:50.719Z,65.77
2023-02-28T00:33:33.432Z,65.58
2023-02-28T00:37:16.279Z,65.72
2023-02-28T00:40:59.561Z,65.94
2023-02-28T00:44:42.249Z,66.33
2023-02-28T00:48:26.274Z,65.80
2023-02-28T00:52:08.974Z,65.52
2023-02-28T00:55:51.873Z,65.71
2023-02-28T00:59:34.506Z,65.18
2023-02-28T01:03:18.508Z,65.83
2023-02-28T01:07:02.561Z,65.44
2023-02-28T01:10:45.184Z,65.52
2023-02-28T01:14:27.839Z,66.41
2023-02-28T01:18:10.551Z,66.10
2023-02-28T01:21:53.242Z,66.31
2023-02-28T01:25:38.161Z,66.55
2023-02-28T01:29:20.827Z,66.76
2023-02-28T01:33:03.574Z,66.88
2023-02-28T01:36:46.689Z,66.39
2023-02-28T01:40:29.375Z,66.98
2023-02-28T01:44:45.353Z,66.77
2023-02-28T01:48:36.757Z,66.94
2023-02-28T01:52:19.803Z,67.31
2023-02-28T01:56:02.678Z,67.76
2023-02-28T01:59:49.738Z,67.04
2023-02-28T02:03:34.451Z,67.41
2023-02-28T02:07:17.222Z,67.52
2023-02-28T02:11:01.728Z,67.23
2023-02-28T02:14:53.699Z,67.79
2023-02-28T02:18:43.273Z,68.13
2023-02-28T02:23:04.925Z,67.92
2023-02-28T02:27:00.046Z,68.37
2023-02-28T02:31:01.090Z,68.75
2023-02-28T02:34:52.744Z,68.77
2023-02-28T02:38:38.915Z,68.64
2023-02-28T02:42:25.792Z,68.56
2023-02-28T02:46:11.526Z,68.24
2023-02-28T02:49:57.709Z,68.16
2023-02-28T02:53:44.516Z,68.48
2023-02-28T02:57:32.277Z,68.32
2023-02-28T03:01:28.550Z,69.00
2023-02-28T03:05:17.370Z,68.80
2023-02-28T03:09:00.023Z,69.07
2023-02-28T03:12:50.185Z,68.70
2023-02-28T03:16:38.679Z,69.20
2023-02-28T03:20:30.157Z,68.97
2023-02-28T03:24:16.663Z,69.67
2023-02-28T03:28:12.743Z,69.84
2023-02-28T03:31:59.464Z,70.23
2023-02-28T03:35:45.899Z,69.60
2023-02-28T03:39:33.337Z,69.89
2023-02-28T03:43:21.645Z,70.07
2023-02-28T03:47:06.872Z,69.55
2023-02-28T03:50:54.416Z,70.62
2023-02-28T03:54:42.151Z,70.10
2023-02-28T03:58:32.390Z,69.98
2023-02-28T04:02:15.043Z,70.58
2023-02-28T04:05:59.792Z,70.97
2023-02-28T04:09:42.909Z,71.40
2023-02-28T04:13:25.609Z,71.52
2023-02-28T04:17:08.241Z,71.20
2023-02-28T04:20:50.887Z,71.29
2023-02-28T04:24:35.240Z,71.42
2023-02-28T04:28:17.845Z,70.90
2023-02-28T04:32:01.946Z,71.74
2023-02-28T04:35:44.725Z,71.61
2023-02-28T04:39:28.594Z,70.99
2023-02-28T04:43:12.590Z,71.21
2023-02-28T04:46:55.191Z,71.76
2023-02-28T04:50:37.811Z,71.54
2023-02-28T04:54:20.607Z,70.92
2023-02-28T04:58:03.481Z,71.17
2023-02-28T05:01:50.031Z,71.34
2023-02-28T05:05:32.724Z,71.24
2023-02-28T05:09:15.399Z,70.68
2023-02-28T05:12:58.042Z,70.87
2023-02-28T05:16:40.880Z,71.10
2023-02-28T05:20:25.057Z,71.06
2023-02-28T05:24:09.446Z,70.90
2023-02-28T05:27:52.155Z,71.26
2023-02-28T05:31:35.573Z,70.67
2023-02-28T05:35:18.324Z,70.93
2023-02-28T05:39:02.352Z,70.91
2023-02-28T05:42:45.029Z,70.63
2023-02-28T05:46:30.378Z,70.03
2023-02-28T05:50:13.532Z,70.35
2023-02-28T05:53:56.136Z,70.51
2023-02-28T05:57:40.189Z,70.71
2023-02-28T06:01:26.090Z,70.45
2023-02-28T06:05:14.147Z,70.26
2023-02-28T06:08:56.788Z,70.67
2023-02-28T06:12:42.488Z,70.29
2023-02-28T06:16:25.561Z,70.35
2023-02-28T06:20:09.836Z,69.63
2023-02-28T06:23:52.729Z,69.31
2023-02-28T06:27:36.217Z,69.05
2023-02-28T06:31:21.080Z,69.50
2023-02-28T06:35:04.235Z,69.83
2023-02-28T06:38:52.268Z,69.09
2023-02-28T06:42:34.937Z,69.97
2023-02-28T06:46:17.737Z,69.02
2023-02-28T06:50:02.476Z,68.83
2023-02-28T06:53:45.147Z,69.46
2023-02-28T06:57:31.742Z,69.56
2023-02-28T07:01:15.567Z,69.58
2023-02-28T07:04:58.309Z,69.28
2023-02-28T07:08:42.516Z,68.22
2023-02-28T07:12:25.283Z,68.87
2023-02-28T07:16:10.973Z,68.53
2023-02-28T07:19:53.620Z,69.04
2023-02-28T07:23:38.615Z,68.58
2023-02-28T07:27:26.572Z,68.65
2023-02-28T07:31:12.826Z,67.64
2023-02-28T07:34:56.022Z,68.05
2023-02-28T07:38:39.505Z,67.86
2023-02-28T07:42:23.588Z,67.56
2023-02-28T07:46:07.715Z,68.06
2023-02-28T07:49:50.389Z,67.74
2023-02-28T07:53:33.048Z,67.19
2023-02-28T07:57:15.992Z,67.28
2023-02-28T08:01:07.418Z,66.98
2023-02-28T08:04:51.457Z,67.14
2023-02-28T08:08:34.476Z,67.80
2023-02-28T08:12:17.256Z,67.01
2023-02-28T08:16:03.912Z,66.75
2023-02-28T08:19:47.382Z,66.99
2023-02-28T08:23:30.020Z,66.75
2023-02-28T08:27:12.674Z,66.93
2023-02-28T08:30:55.701Z,66.00
2023-02-28T08:34:41.205Z,66.07
2023-02-28T08:38:24.039Z,66.45
2023-02-28T08:42:08.012Z,65.79
2023-02-28T08:45:53.783Z,65.61
2023-02-28T08:49:36.569Z,66.06
2023-02-28T08:53:20.564Z,66.02
2023-02-28T08:57:03.231Z,65.47
2023-02-28T09:00:45.862Z,64.78
2023-02-28T09:04:31.609Z,64.97
2023-02-28T09:08:14.242Z,64.51
2023-02-28T09:11:59.067Z,64.58
2023-02-28T09:15:42.851Z,64.54
2023-02-28T09:19:25.515Z,64.58
2023-02-28T09:23:08.367Z,65.31
2023-02-28T09:27:03.498Z,64.99
2023-02-28T09:30:49.740Z,64.87
2023-02-28T09:34:32.787Z,63.74
2023-02-28T09:38:15.549Z,63.98
2023-02-28T09:41:58.732Z,62.87
2023-02-28T09:45:43.177Z,63.03
2023-02-28T09:49:31.153Z,62.95
2023-02-28T09:53:18.961Z,62.32
2023-02-28T09:57:04.121Z,62.93
2023-02-28T10:00:52.528Z,63.26
2023-02-28T10:04:44.840Z,63.40
2023-02-28T10:08:29.684Z,63.54
2023-02-28T10:12:13.758Z,65.75
2023-02-28T10:16:00.334Z,65.79
2023-02-28T10:19:48.239Z,62.39
2023-02-28T10:23:34.318Z,62.10
2023-02-28T10:27:19.637Z,61.16
2023-02-28T10:31:02.569Z,60.99
2023-02-28T10:34:46.885Z,59.92
2023-02-28T10:38:33.883Z,60.40
2023-02-28T10:42:26.769Z,60.62
2023-02-28T10:46:16.454Z,61.32
2023-02-28T10:50:00.531Z,62.12
2023-02-28T10:54:01.639Z,61.54
2023-02-28T10:57:44.839Z,61.23
2023-02-28T11:01:37.926Z,61.24
2023-02-28T11:05:33.601Z,62.99
2023-02-28T11:09:25.292Z,61.66
2023-02-28T11:13:19.097Z,60.50
2023-02-28T11:17:13.384Z,59.90
2023-02-28T11:21:01.193Z,59.20
2023-02-28T11:24:45.742Z,59.40
2023-02-28T11:28:32.169Z,59.06
2023-02-28T11:32:18.779Z,59.22
2023-02-28T11:36:06.315Z,59.05
2023-02-28T11:39:49.166Z,58.17
2023-02-28T11:43:39.539Z,57.19
2023-02-28T11:47:29.816Z,57.96
2023-02-28T11:51:17.993Z,57.94
2023-02-28T11:55:11.513Z,57.48
2023-02-28T11:59:00.428Z,56.75
2023-02-28T12:02:57.357Z,57.86
2023-02-28T12:06:47.186Z,58.41
2023-02-28T12:10:31.687Z,60.61
2023-02-28T12:14:49.093Z,54.84
2023-02-28T12:18:49.333Z,50.91
2023-02-28T12:22:37.947Z,51.71
2023-02-28T12:26:25.275Z,50.62
2023-02-28T12:30:16.491Z,50.52
2023-02-28T12:34:05.441Z,51.33
2023-02-28T12:37:53.749Z,52.14
2023-02-28T12:41:41.439Z,51.11
2023-02-28T12:45:26.162Z,51.54
2023-02-28T12:49:12.764Z,52.08
2023-02-28T12:53:01.877Z,52.43
2023-02-28T12:56:49.428Z,51.87
2023-02-28T13:00:36.372Z,51.70
2023-02-28T13:04:44.129Z,50.88
2023-02-28T13:08:43.677Z,51.05
2023-02-28T13:12:27.792Z,50.78
2023-02-28T13:16:11.705Z,51.45
2023-02-28T13:20:00.024Z,51.15
2023-02-28T13:24:01.508Z,51.70
2023-02-28T13:27:44.733Z,52.03
2023-02-28T13:31:28.171Z,52.53
2023-02-28T13:35:47.351Z,53.13
2023-02-28T13:39:51.213Z,52.87
2023-02-28T13:44:02.047Z,52.27
2023-02-28T13:47:46.062Z,51.51
2023-02-28T13:51:42.855Z,51.77
2023-02-28T13:55:29.627Z,51.79
2023-02-28T13:59:22.664Z,51.68
2023-02-28T14:03:20.956Z,52.11
2023-02-28T14:07:03.921Z,52.31
2023-02-28T14:10:50.315Z,52.31
2023-02-28T14:14:57.356Z,52.01
2023-02-28T14:18:43.182Z,51.04
2023-02-28T14:22:48.359Z,51.07
2023-02-28T14:26:44.967Z,50.91
2023-02-28T14:30:51.223Z,50.54
2023-02-28T14:34:47.276Z,50.47
2023-02-28T14:38:32.204Z,50.16
2023-02-28T14:42:34.005Z,49.01
2023-02-28T14:46:17.294Z,47.46
2023-02-28T14:50:01.273Z,47.46
2023-02-28T14:53:44.021Z,47.58
2023-02-28T14:57:28.261Z,47.21
2023-02-28T15:01:13.362Z,47.70
2023-02-28T15:05:00.715Z,47.91
2023-02-28T15:08:43.346Z,47.78
2023-02-28T15:12:27.236Z,46.68
2023-02-28T15:16:13.806Z,46.86
2023-02-28T15:19:57.019Z,46.49
2023-02-28T15:23:40.128Z,46.86
2023-02-28T15:27:24.560Z,46.58
2023-02-28T15:31:23.833Z,46.39
2023-02-28T15:35:21.803Z,46.99
2023-02-28T15:39:15.915Z,47.04
2023-02-28T15:43:07.073Z,47.74
2023-02-28T15:47:00.150Z,47.64
2023-02-28T15:50:43.354Z,47.79
2023-02-28T15:54:30.163Z,47.53
2023-02-28T15:58:14.457Z,47.57
2023-02-28T16:02:23.063Z,48.08
2023-02-28T16:06:40.184Z,51.08
2023-02-28T16:10:27.848Z,49.78
2023-02-28T16:14:15.745Z,49.32
2023-02-28T16:17:59.922Z,49.55
2023-02-28T16:21:42.534Z,49.76
2023-02-28T16:25:28.490Z,50.40
2023-02-28T16:29:14.227Z,51.16
2023-02-28T16:32:59.045Z,51.86
2023-02-28T16:36:42.057Z,52.31
2023-02-28T16:40:29.525Z,52.79
2023-02-28T16:44:15.558Z,53.69
2023-02-28T16:47:59.589Z,54.18
2023-02-28T16:51:42.194Z,54.25
2023-02-28T16:55:25.800Z,54.42
2023-02-28T16:59:10.416Z,54.97
2023-02-28T17:02:53.233Z,55.15
2023-02-28T17:06:37.560Z,55.76
2023-02-28T17:10:21.937Z,57.31
2023-02-28T17:14:05.218Z,57.48
2023-02-28T17:17:48.582Z,58.77
2023-02-28T17:21:31.980Z,60.45
2023-02-28T17:25:16.155Z,61.58
2023-02-28T17:28:59.608Z,61.41
2023-02-28T17:32:42.389Z,61.98
2023-02-28T17:36:28.129Z,60.09
2023-02-28T17:40:17.359Z,58.50
2023-02-28T17:44:00.120Z,58.46
2023-02-28T17:47:44.133Z,58.13
2023-02-28T17:51:29.067Z,58.63
2023-02-28T17:55:12.681Z,58.97
2023-02-28T17:58:57.520Z,59.47
2023-02-28T18:02:40.199Z,59.36
2023-02-28T18:06:24.835Z,59.32
2023-02-28T18:10:08.719Z,59.72
2023-02-28T18:13:53.212Z,59.96
2023-02-28T18:17:37.571Z,60.05
2023-02-28T18:21:20.244Z,60.25
2023-02-28T18:25:03.043Z,60.29
2023-02-28T18:28:46.301Z,60.78
2023-02-28T18:32:28.997Z,60.59
2023-02-28T18:36:13.108Z,61.11
2023-02-28T18:39:55.772Z,61.04
2023-02-28T18:43:39.396Z,61.72
2023-02-28T18:47:22.217Z,61.30
2023-02-28T18:51:09.033Z,61.58
2023-02-28T18:54:53.039Z,61.49
2023-02-28T18:58:36.255Z,61.26
2023-02-28T19:02:19.423Z,60.88
2023-02-28T19:06:02.163Z,60.69
2023-02-28T19:09:44.840Z,60.76
2023-02-28T19:13:28.996Z,60.69
2023-02-28T19:17:11.654Z,60.63
2023-02-28T19:20:54.915Z,60.56
2023-02-28T19:24:37.523Z,60.40
2023-02-28T19:28:20.401Z,60.38
2023-02-28T19:32:04.926Z,60.43
2023-02-28T19:35:48.398Z,60.60
2023-02-28T19:39:41.011Z,63.56
2023-02-28T19:43:24.374Z,63.18
2023-02-28T19:47:08.908Z,61.94
2023-02-28T19:50:51.548Z,61.60
2023-02-28T19:54:34.819Z,61.58
2023-02-28T19:58:17.518Z,61.77
2023-02-28T20:02:00.249Z,61.61
2023-02-28T20:05:44.236Z,61.39
2023-02-28T20:09:30.814Z,61.61
2023-02-28T20:13:14.337Z,61.59
2023-02-28T20:16:58.270Z,61.54
2023-02-28T20:21:06.411Z,61.99
2023-02-28T20:24:49.563Z,62.10
2023-02-28T20:28:32.223Z,62.22
2023-02-28T20:32:14.905Z,62.92
2023-02-28T20:36:00.849Z,62.64
2023-02-28T20:39:44.899Z,62.15
2023-02-28T20:43:30.349Z,62.27
2023-02-28T20:47:12.993Z,62.71
2023-02-28T20:50:57.084Z,62.87
2023-02-28T20:54:39.737Z,62.59
2023-02-28T20:58:24.215Z,62.75
2023-02-28T21:02:06.958Z,63.14
2023-02-28T21:05:49.684Z,64.72
2023-02-28T21:09:32.750Z,64.76
2023-02-28T21:13:15.500Z,64.16
2023-02-28T21:16:59.725Z,63.73
2023-02-28T21:20:42.616Z,64.24
2023-02-28T21:24:25.586Z,63.54
2023-02-28T21:28:08.600Z,63.79
2023-02-28T21:31:52.438Z,63.92
2023-02-28T21:35:39.736Z,63.59
2023-02-28T21:39:28.456Z,64.20
2023-02-28T21:43:11.244Z,63.56
2023-02-28T21:46:56.945Z,68.25
2023-02-28T21:50:41.035Z,68.18
2023-02-28T21:54:23.982Z,64.62
2023-02-28T21:58:06.681Z,62.57
2023-02-28T22:01:51.524Z,62.71
2023-02-28T22:05:34.304Z,63.17
2023-02-28T22:09:18.820Z,63.01
2023-02-28T22:13:03.584Z,63.48
2023-02-28T22:16:55.160Z,63.54
2023-02-28T22:20:38.279Z,63.39
2023-02-28T22:24:24.382Z,63.91
2023-02-28T22:28:07.352Z,64.25
2023-02-28T22:31:50.065Z,64.22
2023-02-28T22:35:32.785Z,64.40
2023-02-28T22:39:15.512Z,64.23
2023-02-28T22:42:59.630Z,64.23
2023-02-28T22:46:42.360Z,64.85
2023-02-28T22:50:25.056Z,64.44
2023-02-28T22:54:07.710Z,64.29
2023-02-28T22:57:50.379Z,64.80
2023-02-28T23:01:35.631Z,64.61
2023-02-28T23:05:18.578Z,65.08
2023-02-28T23:09:02.948Z,64.64
2023-02-28T23:12:51.209Z,64.18
2023-02-28T23:16:37.210Z,64.68
2023-02-28T23:20:21.816Z,64.66
2023-02-28T23:24:05.394Z,64.74
2023-02-28T23:27:48.351Z,64.23
2023-02-28T23:31:31.399Z,64.07
2023-02-28T23:35:15.484Z,64.28
2023-02-28T23:38:58.147Z,64.17
2023-02-28T23:42:41.007Z,64.28
2023-02-28T23:46:23.819Z,64.27
2023-02-28T23:50:07.105Z,64.63
2023-02-28T23:53:52.592Z,64.34
2023-02-28T23:57:36.170Z,65.00
